sensor_id;sensor_type;location;lat;lon;timestamp;temperature;humidity
19348;DHT22;9810;52.480;9.806;2022-07-23T00:00:30;14.20;99.90
19348;DHT22;9810;52.480;9.806;2022-07-23T00:02:59;14.30;99.90
19348;DHT22;9810;52.480;9.806;2022-07-23T00:05:26;14.20;99.90
19348;DHT22;9810;52.480;9.806;2022-07-23T00:07:53;14.10;99.90
19348;DHT22;9810;52.480;9.806;2022-07-23T00:10:22;14.40;99.90
19348;DHT22;9810;52.480;9.806;2022-07-23T00:12:50;14.50;99.90
19348;DHT22;9810;52.480;9.806;2022-07-23T00:15:18;14.50;99.90
19348;DHT22;9810;52.480;9.806;2022-07-23T00:17:45;14.20;99.90
19348;DHT22;9810;52.480;9.806;2022-07-23T00:20:14;14.20;99.90
19348;DHT22;9810;52.480;9.806;2022-07-23T00:22:46;14.40;99.90
19348;DHT22;9810;52.480;9.806;2022-07-23T00:25:13;14.30;99.90
19348;DHT22;9810;52.480;9.806;2022-07-23T00:27:42;14.50;99.90
19348;DHT22;9810;52.480;9.806;2022-07-23T00:30:11;14.50;99.90
19348;DHT22;9810;52.480;9.806;2022-07-23T00:32:47;14.40;99.90
19348;DHT22;9810;52.480;9.806;2022-07-23T00:35:14;14.30;99.90
19348;DHT22;9810;52.480;9.806;2022-07-23T00:37:42;14.20;99.90
19348;DHT22;9810;52.480;9.806;2022-07-23T00:40:11;14.20;99.90
19348;DHT22;9810;52.480;9.806;2022-07-23T00:42:39;14.20;99.90
19348;DHT22;9810;52.480;9.806;2022-07-23T00:45:09;13.80;99.90
19348;DHT22;9810;52.480;9.806;2022-07-23T00:47:37;13.60;99.90
19348;DHT22;9810;52.480;9.806;2022-07-23T00:50:07;13.50;99.90
19348;DHT22;9810;52.480;9.806;2022-07-23T00:52:36;13.40;99.90
19348;DHT22;9810;52.480;9.806;2022-07-23T00:55:05;13.40;99.90
19348;DHT22;9810;52.480;9.806;2022-07-23T00:57:33;13.60;99.90
19348;DHT22;9810;52.480;9.806;2022-07-23T01:00:01;13.80;99.90
19348;DHT22;9810;52.480;9.806;2022-07-23T01:02:37;13.90;99.90
19348;DHT22;9810;52.480;9.806;2022-07-23T01:05:06;14.00;99.90
19348;DHT22;9810;52.480;9.806;2022-07-23T01:07:35;14.00;99.90
19348;DHT22;9810;52.480;9.806;2022-07-23T01:10:03;13.90;99.90
19348;DHT22;9810;52.480;9.806;2022-07-23T01:12:50;13.90;99.90
19348;DHT22;9810;52.480;9.806;2022-07-23T01:15:17;13.80;99.90
19348;DHT22;9810;52.480;9.806;2022-07-23T01:17:46;13.40;99.90
19348;DHT22;9810;52.480;9.806;2022-07-23T01:20:14;13.00;99.90
19348;DHT22;9810;52.480;9.806;2022-07-23T01:22:43;12.80;99.90
19348;DHT22;9810;52.480;9.806;2022-07-23T01:25:11;12.60;99.90
19348;DHT22;9810;52.480;9.806;2022-07-23T01:27:38;12.50;99.90
19348;DHT22;9810;52.480;9.806;2022-07-23T01:30:07;12.70;99.90
19348;DHT22;9810;52.480;9.806;2022-07-23T01:32:34;13.00;99.90
19348;DHT22;9810;52.480;9.806;2022-07-23T01:35:02;13.20;99.90
19348;DHT22;9810;52.480;9.806;2022-07-23T01:37:29;13.00;99.90
19348;DHT22;9810;52.480;9.806;2022-07-23T01:39:58;13.10;99.90
19348;DHT22;9810;52.480;9.806;2022-07-23T01:42:25;13.30;99.90
19348;DHT22;9810;52.480;9.806;2022-07-23T01:44:52;13.30;99.90
19348;DHT22;9810;52.480;9.806;2022-07-23T01:47:22;13.30;99.90
19348;DHT22;9810;52.480;9.806;2022-07-23T01:49:50;13.20;99.90
19348;DHT22;9810;52.480;9.806;2022-07-23T01:52:19;12.90;99.90
19348;DHT22;9810;52.480;9.806;2022-07-23T01:54:46;12.50;99.90
19348;DHT22;9810;52.480;9.806;2022-07-23T01:57:15;12.30;99.90
19348;DHT22;9810;52.480;9.806;2022-07-23T01:59:42;12.00;99.90
19348;DHT22;9810;52.480;9.806;2022-07-23T02:02:10;11.90;99.90
19348;DHT22;9810;52.480;9.806;2022-07-23T02:04:37;12.10;99.90
19348;DHT22;9810;52.480;9.806;2022-07-23T02:07:05;12.00;99.90
19348;DHT22;9810;52.480;9.806;2022-07-23T02:09:32;11.90;99.90
19348;DHT22;9810;52.480;9.806;2022-07-23T02:12:00;12.00;99.90
19348;DHT22;9810;52.480;9.806;2022-07-23T02:14:29;12.00;99.90
19348;DHT22;9810;52.480;9.806;2022-07-23T02:16:57;12.30;99.90
19348;DHT22;9810;52.480;9.806;2022-07-23T02:19:24;12.40;99.90
19348;DHT22;9810;52.480;9.806;2022-07-23T02:21:51;12.20;99.90
19348;DHT22;9810;52.480;9.806;2022-07-23T02:24:20;12.30;99.90
19348;DHT22;9810;52.480;9.806;2022-07-23T02:27:00;12.60;99.90
19348;DHT22;9810;52.480;9.806;2022-07-23T02:29:32;12.70;99.90
19348;DHT22;9810;52.480;9.806;2022-07-23T02:32:00;12.60;99.90
19348;DHT22;9810;52.480;9.806;2022-07-23T02:34:28;12.50;99.90
19348;DHT22;9810;52.480;9.806;2022-07-23T02:36:56;12.20;99.90
19348;DHT22;9810;52.480;9.806;2022-07-23T02:39:23;12.00;99.90
19348;DHT22;9810;52.480;9.806;2022-07-23T02:41:50;12.30;99.90
19348;DHT22;9810;52.480;9.806;2022-07-23T02:44:20;12.60;99.90
19348;DHT22;9810;52.480;9.806;2022-07-23T02:46:49;12.70;99.90
19348;DHT22;9810;52.480;9.806;2022-07-23T02:49:17;12.70;99.90
19348;DHT22;9810;52.480;9.806;2022-07-23T02:51:45;13.00;99.90
19348;DHT22;9810;52.480;9.806;2022-07-23T02:54:12;13.20;99.90
19348;DHT22;9810;52.480;9.806;2022-07-23T02:56:39;13.30;99.90
19348;DHT22;9810;52.480;9.806;2022-07-23T02:59:07;13.40;99.90
19348;DHT22;9810;52.480;9.806;2022-07-23T03:01:36;13.40;99.90
19348;DHT22;9810;52.480;9.806;2022-07-23T03:04:05;13.20;99.90
19348;DHT22;9810;52.480;9.806;2022-07-23T03:06:33;13.30;99.90
19348;DHT22;9810;52.480;9.806;2022-07-23T03:09:00;13.30;99.90
19348;DHT22;9810;52.480;9.806;2022-07-23T03:11:34;13.10;99.90
19348;DHT22;9810;52.480;9.806;2022-07-23T03:14:01;13.10;99.90
19348;DHT22;9810;52.480;9.806;2022-07-23T03:16:28;13.40;99.90
19348;DHT22;9810;52.480;9.806;2022-07-23T03:18:56;13.60;99.90
19348;DHT22;9810;52.480;9.806;2022-07-23T03:21:25;13.40;99.90
19348;DHT22;9810;52.480;9.806;2022-07-23T03:23:52;13.10;99.90
19348;DHT22;9810;52.480;9.806;2022-07-23T03:26:23;13.20;99.90
19348;DHT22;9810;52.480;9.806;2022-07-23T03:28:53;13.50;99.90
19348;DHT22;9810;52.480;9.806;2022-07-23T03:31:20;13.50;99.90
19348;DHT22;9810;52.480;9.806;2022-07-23T03:33:48;13.30;99.90
19348;DHT22;9810;52.480;9.806;2022-07-23T03:36:15;13.10;99.90
19348;DHT22;9810;52.480;9.806;2022-07-23T03:38:46;13.10;99.90
19348;DHT22;9810;52.480;9.806;2022-07-23T03:41:13;13.50;99.90
19348;DHT22;9810;52.480;9.806;2022-07-23T03:43:41;13.80;99.90
19348;DHT22;9810;52.480;9.806;2022-07-23T03:46:08;13.90;99.90
19348;DHT22;9810;52.480;9.806;2022-07-23T03:48:36;13.90;99.90
19348;DHT22;9810;52.480;9.806;2022-07-23T03:51:03;14.00;99.90
19348;DHT22;9810;52.480;9.806;2022-07-23T03:53:31;14.00;99.90
19348;DHT22;9810;52.480;9.806;2022-07-23T03:56:00;13.80;99.90
19348;DHT22;9810;52.480;9.806;2022-07-23T03:58:27;13.80;99.90
19348;DHT22;9810;52.480;9.806;2022-07-23T04:00:54;13.90;99.90
19348;DHT22;9810;52.480;9.806;2022-07-23T04:03:23;14.00;99.90
19348;DHT22;9810;52.480;9.806;2022-07-23T04:05:51;14.10;99.90
19348;DHT22;9810;52.480;9.806;2022-07-23T04:08:19;14.10;99.90
19348;DHT22;9810;52.480;9.806;2022-07-23T04:10:46;14.00;99.90
19348;DHT22;9810;52.480;9.806;2022-07-23T04:13:15;14.00;99.90
19348;DHT22;9810;52.480;9.806;2022-07-23T04:15:42;13.90;99.90
19348;DHT22;9810;52.480;9.806;2022-07-23T04:18:10;13.70;99.90
19348;DHT22;9810;52.480;9.806;2022-07-23T04:20:37;13.60;99.90
19348;DHT22;9810;52.480;9.806;2022-07-23T04:23:05;13.50;99.90
19348;DHT22;9810;52.480;9.806;2022-07-23T04:25:35;13.50;99.90
19348;DHT22;9810;52.480;9.806;2022-07-23T04:28:03;13.50;99.90
19348;DHT22;9810;52.480;9.806;2022-07-23T04:30:32;13.60;99.90
19348;DHT22;9810;52.480;9.806;2022-07-23T04:32:59;13.60;99.90
19348;DHT22;9810;52.480;9.806;2022-07-23T04:35:27;13.70;99.90
19348;DHT22;9810;52.480;9.806;2022-07-23T04:37:54;13.90;99.90
19348;DHT22;9810;52.480;9.806;2022-07-23T04:40:21;14.10;99.90
19348;DHT22;9810;52.480;9.806;2022-07-23T04:42:49;14.20;99.90
19348;DHT22;9810;52.480;9.806;2022-07-23T04:45:17;14.40;99.90
19348;DHT22;9810;52.480;9.806;2022-07-23T04:47:47;14.40;99.90
19348;DHT22;9810;52.480;9.806;2022-07-23T04:50:14;14.20;99.90
19348;DHT22;9810;52.480;9.806;2022-07-23T04:52:46;14.00;99.90
19348;DHT22;9810;52.480;9.806;2022-07-23T04:55:16;13.90;99.90
19348;DHT22;9810;52.480;9.806;2022-07-23T04:57:44;13.70;99.90
19348;DHT22;9810;52.480;9.806;2022-07-23T05:00:12;13.60;99.90
19348;DHT22;9810;52.480;9.806;2022-07-23T05:02:40;13.50;99.90
19348;DHT22;9810;52.480;9.806;2022-07-23T05:05:09;13.60;99.90
19348;DHT22;9810;52.480;9.806;2022-07-23T05:07:37;13.50;99.90
19348;DHT22;9810;52.480;9.806;2022-07-23T05:10:04;13.60;99.90
19348;DHT22;9810;52.480;9.806;2022-07-23T05:12:32;13.90;99.90
19348;DHT22;9810;52.480;9.806;2022-07-23T05:14:59;14.20;99.90
19348;DHT22;9810;52.480;9.806;2022-07-23T05:17:27;14.50;99.90
19348;DHT22;9810;52.480;9.806;2022-07-23T05:19:54;14.70;99.90
19348;DHT22;9810;52.480;9.806;2022-07-23T05:22:23;14.90;99.90
19348;DHT22;9810;52.480;9.806;2022-07-23T05:24:51;15.10;99.90
19348;DHT22;9810;52.480;9.806;2022-07-23T05:27:18;15.00;99.90
19348;DHT22;9810;52.480;9.806;2022-07-23T05:29:46;14.90;99.90
19348;DHT22;9810;52.480;9.806;2022-07-23T05:32:15;14.70;99.90
19348;DHT22;9810;52.480;9.806;2022-07-23T05:34:44;14.70;99.90
19348;DHT22;9810;52.480;9.806;2022-07-23T05:37:11;14.80;99.90
19348;DHT22;9810;52.480;9.806;2022-07-23T05:39:40;14.70;99.90
19348;DHT22;9810;52.480;9.806;2022-07-23T05:42:10;14.70;99.90
19348;DHT22;9810;52.480;9.806;2022-07-23T05:44:45;14.70;99.90
19348;DHT22;9810;52.480;9.806;2022-07-23T05:47:12;14.60;99.90
19348;DHT22;9810;52.480;9.806;2022-07-23T05:49:42;14.70;99.90
19348;DHT22;9810;52.480;9.806;2022-07-23T05:52:12;14.70;99.90
19348;DHT22;9810;52.480;9.806;2022-07-23T05:54:41;14.90;99.90
19348;DHT22;9810;52.480;9.806;2022-07-23T05:57:09;15.30;99.90
19348;DHT22;9810;52.480;9.806;2022-07-23T05:59:35;15.40;99.90
19348;DHT22;9810;52.480;9.806;2022-07-23T06:02:03;15.50;99.90
19348;DHT22;9810;52.480;9.806;2022-07-23T06:04:30;15.30;99.90
19348;DHT22;9810;52.480;9.806;2022-07-23T06:06:57;15.50;99.90
19348;DHT22;9810;52.480;9.806;2022-07-23T06:09:24;15.60;99.90
19348;DHT22;9810;52.480;9.806;2022-07-23T06:11:54;15.50;99.90
19348;DHT22;9810;52.480;9.806;2022-07-23T06:14:21;15.50;99.90
19348;DHT22;9810;52.480;9.806;2022-07-23T06:16:49;15.40;99.90
19348;DHT22;9810;52.480;9.806;2022-07-23T06:19:17;15.80;99.90
19348;DHT22;9810;52.480;9.806;2022-07-23T06:21:44;16.10;99.90
19348;DHT22;9810;52.480;9.806;2022-07-23T06:24:12;16.10;99.90
19348;DHT22;9810;52.480;9.806;2022-07-23T06:26:39;15.90;99.90
19348;DHT22;9810;52.480;9.806;2022-07-23T06:29:08;16.10;99.90
19348;DHT22;9810;52.480;9.806;2022-07-23T06:31:37;16.00;99.90
19348;DHT22;9810;52.480;9.806;2022-07-23T06:34:04;16.20;99.90
19348;DHT22;9810;52.480;9.806;2022-07-23T06:36:32;16.30;99.90
19348;DHT22;9810;52.480;9.806;2022-07-23T06:38:59;16.30;99.90
19348;DHT22;9810;52.480;9.806;2022-07-23T06:41:27;16.20;99.90
19348;DHT22;9810;52.480;9.806;2022-07-23T06:43:55;16.20;99.90
19348;DHT22;9810;52.480;9.806;2022-07-23T06:46:29;16.30;99.90
19348;DHT22;9810;52.480;9.806;2022-07-23T06:48:58;16.40;99.90
19348;DHT22;9810;52.480;9.806;2022-07-23T06:51:29;16.80;99.90
19348;DHT22;9810;52.480;9.806;2022-07-23T06:53:57;16.80;99.90
19348;DHT22;9810;52.480;9.806;2022-07-23T06:56:24;16.70;99.90
19348;DHT22;9810;52.480;9.806;2022-07-23T06:58:51;16.60;99.90
19348;DHT22;9810;52.480;9.806;2022-07-23T07:01:20;16.60;99.90
19348;DHT22;9810;52.480;9.806;2022-07-23T07:03:49;16.80;99.90
19348;DHT22;9810;52.480;9.806;2022-07-23T07:06:17;17.00;99.90
19348;DHT22;9810;52.480;9.806;2022-07-23T07:08:44;17.20;99.90
19348;DHT22;9810;52.480;9.806;2022-07-23T07:11:12;17.20;99.90
19348;DHT22;9810;52.480;9.806;2022-07-23T07:13:39;17.20;99.90
19348;DHT22;9810;52.480;9.806;2022-07-23T07:16:07;17.20;99.90
19348;DHT22;9810;52.480;9.806;2022-07-23T07:18:36;17.20;99.90
19348;DHT22;9810;52.480;9.806;2022-07-23T07:21:08;17.10;99.90
19348;DHT22;9810;52.480;9.806;2022-07-23T07:23:35;17.30;99.90
19348;DHT22;9810;52.480;9.806;2022-07-23T07:26:04;17.70;99.90
19348;DHT22;9810;52.480;9.806;2022-07-23T07:28:31;17.90;99.90
19348;DHT22;9810;52.480;9.806;2022-07-23T07:30:59;18.40;99.90
19348;DHT22;9810;52.480;9.806;2022-07-23T07:33:35;18.50;99.90
19348;DHT22;9810;52.480;9.806;2022-07-23T07:36:03;19.00;99.90
19348;DHT22;9810;52.480;9.806;2022-07-23T07:38:32;19.20;99.90
19348;DHT22;9810;52.480;9.806;2022-07-23T07:41:00;19.40;99.90
19348;DHT22;9810;52.480;9.806;2022-07-23T07:43:27;19.10;99.90
19348;DHT22;9810;52.480;9.806;2022-07-23T07:45:58;19.10;99.90
19348;DHT22;9810;52.480;9.806;2022-07-23T07:48:29;18.90;99.90
19348;DHT22;9810;52.480;9.806;2022-07-23T07:50:56;19.10;99.90
19348;DHT22;9810;52.480;9.806;2022-07-23T07:53:24;19.00;99.90
19348;DHT22;9810;52.480;9.806;2022-07-23T07:55:53;18.80;99.90
19348;DHT22;9810;52.480;9.806;2022-07-23T07:58:20;19.00;99.90
19348;DHT22;9810;52.480;9.806;2022-07-23T08:00:49;20.50;99.90
19348;DHT22;9810;52.480;9.806;2022-07-23T08:03:17;22.40;99.90
19348;DHT22;9810;52.480;9.806;2022-07-23T08:05:44;22.50;99.90
19348;DHT22;9810;52.480;9.806;2022-07-23T08:08:12;22.40;99.90
19348;DHT22;9810;52.480;9.806;2022-07-23T08:10:40;22.00;99.90
19348;DHT22;9810;52.480;9.806;2022-07-23T08:13:12;22.00;99.90
19348;DHT22;9810;52.480;9.806;2022-07-23T08:15:43;23.70;99.90
19348;DHT22;9810;52.480;9.806;2022-07-23T08:18:11;24.40;99.90
19348;DHT22;9810;52.480;9.806;2022-07-23T08:20:39;24.90;99.90
19348;DHT22;9810;52.480;9.806;2022-07-23T08:23:07;24.80;99.90
19348;DHT22;9810;52.480;9.806;2022-07-23T08:25:37;23.80;99.90
19348;DHT22;9810;52.480;9.806;2022-07-23T08:28:05;23.50;99.90
19348;DHT22;9810;52.480;9.806;2022-07-23T08:30:36;24.30;99.90
19348;DHT22;9810;52.480;9.806;2022-07-23T08:33:06;25.50;99.90
19348;DHT22;9810;52.480;9.806;2022-07-23T08:35:40;27.40;99.90
19348;DHT22;9810;52.480;9.806;2022-07-23T08:38:09;27.70;99.90
19348;DHT22;9810;52.480;9.806;2022-07-23T08:40:38;27.50;99.90
19348;DHT22;9810;52.480;9.806;2022-07-23T08:43:09;26.00;99.90
19348;DHT22;9810;52.480;9.806;2022-07-23T08:45:41;25.20;99.90
19348;DHT22;9810;52.480;9.806;2022-07-23T08:48:12;25.50;99.90
19348;DHT22;9810;52.480;9.806;2022-07-23T08:50:43;25.30;99.90
19348;DHT22;9810;52.480;9.806;2022-07-23T08:53:10;25.40;99.90
19348;DHT22;9810;52.480;9.806;2022-07-23T08:55:39;26.50;99.90
19348;DHT22;9810;52.480;9.806;2022-07-23T08:58:06;28.30;99.90
19348;DHT22;9810;52.480;9.806;2022-07-23T09:00:34;27.70;99.90
19348;DHT22;9810;52.480;9.806;2022-07-23T09:03:04;26.00;99.90
19348;DHT22;9810;52.480;9.806;2022-07-23T09:05:33;25.10;99.90
19348;DHT22;9810;52.480;9.806;2022-07-23T09:08:05;25.40;99.90
19348;DHT22;9810;52.480;9.806;2022-07-23T09:10:43;27.70;99.90
19348;DHT22;9810;52.480;9.806;2022-07-23T09:13:37;27.50;99.90
19348;DHT22;9810;52.480;9.806;2022-07-23T09:16:07;28.80;99.90
19348;DHT22;9810;52.480;9.806;2022-07-23T09:18:43;30.00;99.90
19348;DHT22;9810;52.480;9.806;2022-07-23T09:21:20;29.80;99.90
19348;DHT22;9810;52.480;9.806;2022-07-23T09:23:53;29.30;99.90
19348;DHT22;9810;52.480;9.806;2022-07-23T09:26:27;26.50;99.90
19348;DHT22;9810;52.480;9.806;2022-07-23T09:29:01;25.70;99.90
19348;DHT22;9810;52.480;9.806;2022-07-23T09:31:35;23.80;99.90
19348;DHT22;9810;52.480;9.806;2022-07-23T09:34:17;23.20;99.90
19348;DHT22;9810;52.480;9.806;2022-07-23T09:37:08;23.20;99.90
19348;DHT22;9810;52.480;9.806;2022-07-23T09:39:36;25.00;99.90
19348;DHT22;9810;52.480;9.806;2022-07-23T09:42:13;25.90;99.90
19348;DHT22;9810;52.480;9.806;2022-07-23T09:44:43;26.00;99.90
19348;DHT22;9810;52.480;9.806;2022-07-23T09:47:11;26.80;99.90
19348;DHT22;9810;52.480;9.806;2022-07-23T09:49:41;26.20;99.90
19348;DHT22;9810;52.480;9.806;2022-07-23T09:52:32;25.80;99.90
19348;DHT22;9810;52.480;9.806;2022-07-23T09:55:01;25.30;99.90
19348;DHT22;9810;52.480;9.806;2022-07-23T09:57:29;23.90;99.90
19348;DHT22;9810;52.480;9.806;2022-07-23T10:00:04;23.30;99.90
19348;DHT22;9810;52.480;9.806;2022-07-23T10:02:33;23.30;99.90
19348;DHT22;9810;52.480;9.806;2022-07-23T10:05:06;24.40;99.90
19348;DHT22;9810;52.480;9.806;2022-07-23T10:07:37;25.80;99.90
19348;DHT22;9810;52.480;9.806;2022-07-23T10:10:06;27.20;99.90
19348;DHT22;9810;52.480;9.806;2022-07-23T10:12:36;28.00;99.90
19348;DHT22;9810;52.480;9.806;2022-07-23T10:26:14;28.90;99.90
19348;DHT22;9810;52.480;9.806;2022-07-23T10:29:02;28.40;98.90
19348;DHT22;9810;52.480;9.806;2022-07-23T10:31:40;27.80;98.40
19348;DHT22;9810;52.480;9.806;2022-07-23T10:34:17;27.20;97.90
19348;DHT22;9810;52.480;9.806;2022-07-23T10:36:50;27.00;99.60
19348;DHT22;9810;52.480;9.806;2022-07-23T10:39:22;27.80;97.80
19348;DHT22;9810;52.480;9.806;2022-07-23T10:41:52;28.70;95.50
19348;DHT22;9810;52.480;9.806;2022-07-23T10:44:38;28.00;96.70
19348;DHT22;9810;52.480;9.806;2022-07-23T10:47:06;28.40;95.80
19348;DHT22;9810;52.480;9.806;2022-07-23T10:50:19;28.30;95.20
19348;DHT22;9810;52.480;9.806;2022-07-23T10:53:08;27.50;96.50
19348;DHT22;9810;52.480;9.806;2022-07-23T10:55:42;26.40;98.90
19348;DHT22;9810;52.480;9.806;2022-07-23T10:58:21;25.10;99.90
19348;DHT22;9810;52.480;9.806;2022-07-23T11:00:49;26.00;99.90
19348;DHT22;9810;52.480;9.806;2022-07-23T11:03:31;26.60;99.90
19348;DHT22;9810;52.480;9.806;2022-07-23T11:06:02;26.40;99.20
19348;DHT22;9810;52.480;9.806;2022-07-23T11:08:30;26.50;99.90
19348;DHT22;9810;52.480;9.806;2022-07-23T11:11:12;26.70;99.10
19348;DHT22;9810;52.480;9.806;2022-07-23T11:13:47;26.30;98.30
19348;DHT22;9810;52.480;9.806;2022-07-23T11:16:25;26.10;98.20
19348;DHT22;9810;52.480;9.806;2022-07-23T11:19:07;26.00;98.80
19348;DHT22;9810;52.480;9.806;2022-07-23T11:21:41;25.30;99.90
19348;DHT22;9810;52.480;9.806;2022-07-23T11:24:10;25.40;99.90
19348;DHT22;9810;52.480;9.806;2022-07-23T11:26:50;24.60;99.90
19348;DHT22;9810;52.480;9.806;2022-07-23T11:29:45;24.20;99.90
19348;DHT22;9810;52.480;9.806;2022-07-23T11:32:28;23.90;99.90
19348;DHT22;9810;52.480;9.806;2022-07-23T11:34:55;23.90;99.90
19348;DHT22;9810;52.480;9.806;2022-07-23T11:37:34;24.30;99.90
19348;DHT22;9810;52.480;9.806;2022-07-23T11:40:05;24.60;99.90
19348;DHT22;9810;52.480;9.806;2022-07-23T11:42:34;24.50;99.90
19348;DHT22;9810;52.480;9.806;2022-07-23T11:45:03;24.70;99.90
19348;DHT22;9810;52.480;9.806;2022-07-23T11:47:31;25.20;99.90
19348;DHT22;9810;52.480;9.806;2022-07-23T11:49:59;25.20;99.90
19348;DHT22;9810;52.480;9.806;2022-07-23T11:52:29;25.40;99.90
19348;DHT22;9810;52.480;9.806;2022-07-23T11:55:02;25.30;99.90
19348;DHT22;9810;52.480;9.806;2022-07-23T11:57:31;25.00;99.90
19348;DHT22;9810;52.480;9.806;2022-07-23T12:00:03;24.30;99.90
19348;DHT22;9810;52.480;9.806;2022-07-23T12:02:31;24.60;99.90
19348;DHT22;9810;52.480;9.806;2022-07-23T12:04:59;24.70;99.90
19348;DHT22;9810;52.480;9.806;2022-07-23T12:07:28;23.90;99.90
19348;DHT22;9810;52.480;9.806;2022-07-23T12:09:57;23.40;99.90
19348;DHT22;9810;52.480;9.806;2022-07-23T12:12:25;23.50;99.90
19348;DHT22;9810;52.480;9.806;2022-07-23T12:14:56;23.90;99.90
19348;DHT22;9810;52.480;9.806;2022-07-23T12:17:30;24.50;99.90
19348;DHT22;9810;52.480;9.806;2022-07-23T12:20:00;24.90;99.90
19348;DHT22;9810;52.480;9.806;2022-07-23T12:22:34;25.60;99.90
19348;DHT22;9810;52.480;9.806;2022-07-23T12:25:06;25.50;99.90
19348;DHT22;9810;52.480;9.806;2022-07-23T12:27:40;25.10;99.80
19348;DHT22;9810;52.480;9.806;2022-07-23T12:30:22;24.80;99.90
19348;DHT22;9810;52.480;9.806;2022-07-23T12:32:53;24.10;99.90
19348;DHT22;9810;52.480;9.806;2022-07-23T12:35:22;24.40;99.90
19348;DHT22;9810;52.480;9.806;2022-07-23T12:37:51;24.80;99.90
19348;DHT22;9810;52.480;9.806;2022-07-23T12:40:31;23.80;99.90
19348;DHT22;9810;52.480;9.806;2022-07-23T12:43:00;24.10;99.90
19348;DHT22;9810;52.480;9.806;2022-07-23T12:45:41;24.70;99.90
19348;DHT22;9810;52.480;9.806;2022-07-23T12:48:16;25.30;99.90
19348;DHT22;9810;52.480;9.806;2022-07-23T12:50:49;25.00;99.90
19348;DHT22;9810;52.480;9.806;2022-07-23T12:53:18;24.90;99.90
19348;DHT22;9810;52.480;9.806;2022-07-23T12:55:47;24.10;99.90
19348;DHT22;9810;52.480;9.806;2022-07-23T12:58:16;23.70;99.90
19348;DHT22;9810;52.480;9.806;2022-07-23T13:01:05;23.70;99.90
19348;DHT22;9810;52.480;9.806;2022-07-23T13:03:39;24.40;99.90
19348;DHT22;9810;52.480;9.806;2022-07-23T13:06:07;24.70;99.90
19348;DHT22;9810;52.480;9.806;2022-07-23T13:08:46;24.60;99.70
19348;DHT22;9810;52.480;9.806;2022-07-23T13:11:13;25.00;99.90
19348;DHT22;9810;52.480;9.806;2022-07-23T13:13:41;25.00;99.00
19348;DHT22;9810;52.480;9.806;2022-07-23T13:16:09;25.10;98.90
19348;DHT22;9810;52.480;9.806;2022-07-23T13:18:38;25.30;99.90
19348;DHT22;9810;52.480;9.806;2022-07-23T13:21:05;24.70;98.90
19348;DHT22;9810;52.480;9.806;2022-07-23T13:23:32;24.40;99.90
19348;DHT22;9810;52.480;9.806;2022-07-23T13:25:59;24.10;99.90
19348;DHT22;9810;52.480;9.806;2022-07-23T13:28:26;24.30;99.90
19348;DHT22;9810;52.480;9.806;2022-07-23T13:30:54;24.80;99.90
19348;DHT22;9810;52.480;9.806;2022-07-23T13:33:25;25.10;99.90
19348;DHT22;9810;52.480;9.806;2022-07-23T13:35:53;25.40;99.50
19348;DHT22;9810;52.480;9.806;2022-07-23T13:38:21;24.80;99.20
19348;DHT22;9810;52.480;9.806;2022-07-23T13:40:50;24.60;99.20
19348;DHT22;9810;52.480;9.806;2022-07-23T13:43:19;24.40;99.90
19348;DHT22;9810;52.480;9.806;2022-07-23T13:45:46;24.70;99.50
19348;DHT22;9810;52.480;9.806;2022-07-23T13:48:14;25.10;99.90
19348;DHT22;9810;52.480;9.806;2022-07-23T13:50:43;25.30;99.10
19348;DHT22;9810;52.480;9.806;2022-07-23T13:53:14;25.50;99.90
19348;DHT22;9810;52.480;9.806;2022-07-23T13:55:42;25.60;99.30
19348;DHT22;9810;52.480;9.806;2022-07-23T13:58:10;25.80;98.80
19348;DHT22;9810;52.480;9.806;2022-07-23T14:00:41;25.70;99.10
19348;DHT22;9810;52.480;9.806;2022-07-23T14:03:08;25.20;99.40
19348;DHT22;9810;52.480;9.806;2022-07-23T14:05:36;25.00;99.40
19348;DHT22;9810;52.480;9.806;2022-07-23T14:08:04;24.60;99.90
19348;DHT22;9810;52.480;9.806;2022-07-23T14:10:34;24.60;99.90
19348;DHT22;9810;52.480;9.806;2022-07-23T14:13:01;24.70;99.90
19348;DHT22;9810;52.480;9.806;2022-07-23T14:15:30;24.70;99.90
19348;DHT22;9810;52.480;9.806;2022-07-23T14:17:58;24.70;98.90
19348;DHT22;9810;52.480;9.806;2022-07-23T14:20:25;24.90;99.10
19348;DHT22;9810;52.480;9.806;2022-07-23T14:22:52;24.90;99.00
19348;DHT22;9810;52.480;9.806;2022-07-23T14:25:21;25.20;99.00
19348;DHT22;9810;52.480;9.806;2022-07-23T14:27:50;24.90;99.10
19348;DHT22;9810;52.480;9.806;2022-07-23T14:30:17;25.10;99.10
19348;DHT22;9810;52.480;9.806;2022-07-23T14:32:45;25.30;98.30
19348;DHT22;9810;52.480;9.806;2022-07-23T14:35:12;25.10;98.50
19348;DHT22;9810;52.480;9.806;2022-07-23T14:37:39;25.30;99.70
19348;DHT22;9810;52.480;9.806;2022-07-23T14:40:07;25.20;98.40
19348;DHT22;9810;52.480;9.806;2022-07-23T14:42:34;24.60;98.50
19348;DHT22;9810;52.480;9.806;2022-07-23T14:45:04;25.10;99.00
19348;DHT22;9810;52.480;9.806;2022-07-23T14:47:32;25.20;98.40
19348;DHT22;9810;52.480;9.806;2022-07-23T14:49:59;25.00;98.20
19348;DHT22;9810;52.480;9.806;2022-07-23T14:52:26;25.00;99.10
19348;DHT22;9810;52.480;9.806;2022-07-23T14:54:53;25.00;99.20
19348;DHT22;9810;52.480;9.806;2022-07-23T14:57:20;25.30;98.80
19348;DHT22;9810;52.480;9.806;2022-07-23T14:59:47;25.40;98.70
19348;DHT22;9810;52.480;9.806;2022-07-23T15:02:16;25.00;98.80
19348;DHT22;9810;52.480;9.806;2022-07-23T15:04:45;24.70;99.30
19348;DHT22;9810;52.480;9.806;2022-07-23T15:07:12;24.70;98.40
19348;DHT22;9810;52.480;9.806;2022-07-23T15:09:39;24.60;99.10
19348;DHT22;9810;52.480;9.806;2022-07-23T15:12:06;24.80;99.60
19348;DHT22;9810;52.480;9.806;2022-07-23T15:14:33;25.10;98.80
19348;DHT22;9810;52.480;9.806;2022-07-23T15:17:01;25.30;98.20
19348;DHT22;9810;52.480;9.806;2022-07-23T15:19:29;25.10;98.10
19348;DHT22;9810;52.480;9.806;2022-07-23T15:21:57;25.20;97.80
19348;DHT22;9810;52.480;9.806;2022-07-23T15:24:27;24.90;98.10
19348;DHT22;9810;52.480;9.806;2022-07-23T15:26:54;24.50;98.50
19348;DHT22;9810;52.480;9.806;2022-07-23T15:29:22;24.40;98.70
19348;DHT22;9810;52.480;9.806;2022-07-23T15:31:49;24.30;99.00
19348;DHT22;9810;52.480;9.806;2022-07-23T15:34:16;24.40;98.90
19348;DHT22;9810;52.480;9.806;2022-07-23T15:36:45;24.40;99.00
19348;DHT22;9810;52.480;9.806;2022-07-23T15:39:12;24.20;98.90
19348;DHT22;9810;52.480;9.806;2022-07-23T15:41:40;24.60;99.00
19348;DHT22;9810;52.480;9.806;2022-07-23T15:44:07;24.80;98.40
19348;DHT22;9810;52.480;9.806;2022-07-23T15:46:34;24.80;98.80
19348;DHT22;9810;52.480;9.806;2022-07-23T15:49:02;24.80;98.70
19348;DHT22;9810;52.480;9.806;2022-07-23T15:51:29;24.30;97.90
19348;DHT22;9810;52.480;9.806;2022-07-23T15:53:58;24.10;99.00
19348;DHT22;9810;52.480;9.806;2022-07-23T15:56:25;24.00;99.30
19348;DHT22;9810;52.480;9.806;2022-07-23T15:58:52;24.10;99.00
19348;DHT22;9810;52.480;9.806;2022-07-23T16:01:19;23.80;99.70
19348;DHT22;9810;52.480;9.806;2022-07-23T16:03:47;24.00;99.60
19348;DHT22;9810;52.480;9.806;2022-07-23T16:06:14;24.20;99.10
19348;DHT22;9810;52.480;9.806;2022-07-23T16:08:41;24.20;98.90
19348;DHT22;9810;52.480;9.806;2022-07-23T16:11:10;24.30;99.10